createdAt,value
2023-01-19T00:00:48.093Z,-2.58
2023-01-19T00:01:48.038Z,-2.58
2023-01-19T00:02:48.101Z,-2.57
2023-01-19T00:03:48.006Z,-2.58
2023-01-19T00:04:48.004Z,-2.56
2023-01-19T00:05:48.032Z,-2.57
2023-01-19T00:06:47.986Z,-2.60
2023-01-19T00:07:47.950Z,-2.60
2023-01-19T00:08:47.953Z,-2.60
2023-01-19T00:09:47.927Z,-2.60
2023-01-19T00:10:47.991Z,-2.64
2023-01-19T00:11:47.906Z,-2.69
2023-01-19T00:12:47.931Z,-2.74
2023-01-19T00:13:47.888Z,-2.75
2023-01-19T00:14:47.887Z,-2.76
2023-01-19T00:15:47.874Z,-2.79
2023-01-19T00:16:47.854Z,-2.81
2023-01-19T00:17:47.846Z,-2.82
2023-01-19T00:18:47.855Z,-2.86
2023-01-19T00:19:47.816Z,-2.89
2023-01-19T00:20:47.803Z,-2.86
2023-01-19T00:21:47.812Z,-2.85
2023-01-19T00:22:47.789Z,-2.81
2023-01-19T00:23:47.755Z,-2.81
2023-01-19T00:24:47.744Z,-2.82
2023-01-19T00:25:47.735Z,-2.85
2023-01-19T00:26:47.725Z,-2.86
2023-01-19T00:27:47.714Z,-2.79
2023-01-19T00:28:47.709Z,-2.75
2023-01-19T00:29:47.690Z,-2.71
2023-01-19T00:30:47.679Z,-2.64
2023-01-19T00:31:47.734Z,-2.63
2023-01-19T00:32:47.653Z,-2.60
2023-01-19T00:33:47.631Z,-2.56
2023-01-19T00:34:47.623Z,-2.51
2023-01-19T00:35:47.593Z,-2.50
2023-01-19T00:36:47.612Z,-2.48
2023-01-19T00:37:47.585Z,-2.47
2023-01-19T00:38:47.576Z,-2.42
2023-01-19T00:39:47.561Z,-2.42
2023-01-19T00:40:47.551Z,-2.40
2023-01-19T00:41:47.555Z,-2.38
2023-01-19T00:42:47.534Z,-2.36
2023-01-19T00:43:47.513Z,-2.38
2023-01-19T00:44:47.505Z,-2.39
2023-01-19T00:45:47.522Z,-2.40
2023-01-19T00:46:47.475Z,-2.42
2023-01-19T00:47:47.495Z,-2.42
2023-01-19T00:48:47.444Z,-2.43
2023-01-19T00:49:47.443Z,-2.42
2023-01-19T00:50:47.414Z,-2.42
2023-01-19T00:51:47.404Z,-2.43
2023-01-19T00:52:47.395Z,-2.43
2023-01-19T00:53:47.393Z,-2.47
2023-01-19T00:54:47.363Z,-2.50
2023-01-19T00:55:47.364Z,-2.53
2023-01-19T00:56:47.336Z,-2.53
2023-01-19T00:57:47.351Z,-2.56
2023-01-19T00:58:47.333Z,-2.60
2023-01-19T00:59:47.315Z,-2.63
2023-01-19T01:00:47.359Z,-2.63
2023-01-19T01:01:47.386Z,-2.66
2023-01-19T01:02:47.331Z,-2.66
2023-01-19T01:03:47.270Z,-2.71
2023-01-19T01:04:47.253Z,-2.75
2023-01-19T01:05:47.243Z,-2.75
2023-01-19T01:06:47.218Z,-2.76
2023-01-19T01:07:47.210Z,-2.75
2023-01-19T01:08:47.189Z,-2.76
2023-01-19T01:09:47.182Z,-2.74
2023-01-19T01:10:47.199Z,-2.72
2023-01-19T01:11:47.161Z,-2.74
2023-01-19T01:12:56.360Z,-2.75
2023-01-19T01:13:48.130Z,-2.75
2023-01-19T01:14:47.111Z,-2.75
2023-01-19T01:15:47.141Z,-2.76
2023-01-19T01:16:47.127Z,-2.78
2023-01-19T01:17:47.117Z,-2.79
2023-01-19T01:18:47.062Z,-2.81
2023-01-19T01:19:47.062Z,-2.82
2023-01-19T01:20:47.049Z,-2.87
2023-01-19T01:21:47.057Z,-2.90
2023-01-19T01:22:47.029Z,-2.90
2023-01-19T01:23:47.009Z,-2.92
2023-01-19T01:24:47.000Z,-2.92
2023-01-19T01:25:46.993Z,-2.94
2023-01-19T01:26:46.969Z,-2.93
2023-01-19T01:27:46.982Z,-2.89
2023-01-19T01:28:46.936Z,-2.87
2023-01-19T01:29:46.938Z,-2.90
2023-01-19T01:30:46.923Z,-2.90
2023-01-19T01:31:46.975Z,-2.94
2023-01-19T01:32:46.968Z,-2.94
2023-01-19T01:33:46.894Z,-2.94
2023-01-19T01:34:46.872Z,-2.94
2023-01-19T01:35:46.860Z,-2.93
2023-01-19T01:36:46.843Z,-2.94
2023-01-19T01:37:46.832Z,-2.96
2023-01-19T01:38:46.828Z,-2.94
2023-01-19T01:39:46.807Z,-2.94
2023-01-19T01:40:46.779Z,-2.96
2023-01-19T01:41:46.828Z,-2.93
2023-01-19T01:42:46.759Z,-2.94
2023-01-19T01:43:46.767Z,-2.96
2023-01-19T01:44:46.748Z,-2.97
2023-01-19T01:45:46.736Z,-2.99
2023-01-19T01:46:46.718Z,-3.02
2023-01-19T01:47:46.711Z,-3.02
2023-01-19T01:48:46.682Z,-3.02
2023-01-19T01:49:46.702Z,-2.99
2023-01-19T01:50:46.647Z,-3.00
2023-01-19T01:51:46.670Z,-3.00
2023-01-19T01:53:06.079Z,-3.05
2023-01-19T01:53:47.635Z,-3.05
2023-01-19T01:54:46.648Z,-3.07
2023-01-19T01:55:46.617Z,-3.05
2023-01-19T01:56:46.591Z,-3.05
2023-01-19T01:57:46.582Z,-3.08
2023-01-19T01:58:46.569Z,-3.08
2023-01-19T01:59:46.583Z,-3.07
2023-01-19T02:00:46.537Z,-3.10
2023-01-19T02:01:46.623Z,-3.08
2023-01-19T02:02:46.505Z,-3.11
2023-01-19T02:03:46.505Z,-3.11
2023-01-19T02:04:46.496Z,-3.15
2023-01-19T02:05:46.475Z,-3.15
2023-01-19T02:06:46.456Z,-3.15
2023-01-19T02:07:46.457Z,-3.15
2023-01-19T02:08:46.424Z,-3.11
2023-01-19T02:09:46.423Z,-3.14
2023-01-19T02:10:46.430Z,-3.13
2023-01-19T02:11:46.459Z,-3.15
2023-01-19T02:12:46.386Z,-3.18
2023-01-19T02:13:46.385Z,-3.22
2023-01-19T02:14:46.356Z,-3.22
2023-01-19T02:15:46.357Z,-3.20
2023-01-19T02:16:46.362Z,-3.18
2023-01-19T02:17:46.339Z,-3.17
2023-01-19T02:18:46.305Z,-3.20
2023-01-19T02:19:46.295Z,-3.25
2023-01-19T02:20:46.273Z,-3.25
2023-01-19T02:21:46.332Z,-3.23
2023-01-19T02:22:46.263Z,-3.23
2023-01-19T02:23:46.248Z,-3.22
2023-01-19T02:24:46.242Z,-3.22
2023-01-19T02:25:46.226Z,-3.22
2023-01-19T02:26:46.208Z,-3.18
2023-01-19T02:27:46.215Z,-3.22
2023-01-19T02:28:46.188Z,-3.22
2023-01-19T02:29:46.188Z,-3.26
2023-01-19T02:30:46.164Z,-3.28
2023-01-19T02:31:46.175Z,-3.26
2023-01-19T02:32:46.125Z,-3.25
2023-01-19T02:33:46.142Z,-3.25
2023-01-19T02:34:46.094Z,-3.25
2023-01-19T02:35:46.101Z,-3.26
2023-01-19T02:36:46.103Z,-3.28
2023-01-19T02:37:46.121Z,-3.28
2023-01-19T02:38:46.070Z,-3.32
2023-01-19T02:39:46.055Z,-3.36
2023-01-19T02:40:46.042Z,-3.39
2023-01-19T02:41:46.041Z,-3.41
2023-01-19T02:42:46.002Z,-3.46
2023-01-19T02:43:45.998Z,-3.46
2023-01-19T02:44:45.974Z,-3.44
2023-01-19T02:45:45.991Z,-3.44
2023-01-19T02:46:45.981Z,-3.47
2023-01-19T02:47:45.949Z,-3.53
2023-01-19T02:48:45.925Z,-3.57
2023-01-19T02:49:45.932Z,-3.61
2023-01-19T02:50:45.951Z,-3.60
2023-01-19T02:51:45.938Z,-3.57
2023-01-19T02:52:45.862Z,-3.56
2023-01-19T02:53:45.873Z,-3.56
2023-01-19T02:54:45.883Z,-3.54
2023-01-19T02:55:45.874Z,-3.51
2023-01-19T02:56:45.834Z,-3.47
2023-01-19T02:57:45.839Z,-3.44
2023-01-19T02:58:45.791Z,-3.44
2023-01-19T02:59:45.811Z,-3.44
2023-01-19T03:00:45.800Z,-3.41
2023-01-19T03:01:45.880Z,-3.38
2023-01-19T03:02:45.783Z,-3.38
2023-01-19T03:03:45.761Z,-3.38
2023-01-19T03:04:45.748Z,-3.36
2023-01-19T03:05:45.718Z,-3.33
2023-01-19T03:06:45.705Z,-3.31
2023-01-19T03:07:45.701Z,-3.33
2023-01-19T03:08:45.692Z,-3.33
2023-01-19T03:09:45.672Z,-3.36
2023-01-19T03:10:45.655Z,-3.35
2023-01-19T03:11:45.674Z,-3.35
2023-01-19T03:12:45.630Z,-3.36
2023-01-19T03:13:45.640Z,-3.41
2023-01-19T03:14:45.589Z,-3.39
2023-01-19T03:15:45.653Z,-3.38
2023-01-19T03:16:45.601Z,-3.38
2023-01-19T03:17:45.574Z,-3.36
2023-01-19T03:18:45.557Z,-3.36
2023-01-19T03:19:45.541Z,-3.38
2023-01-19T03:20:45.539Z,-3.39
2023-01-19T03:21:45.541Z,-3.43
2023-01-19T03:22:45.532Z,-3.47
2023-01-19T03:23:45.512Z,-3.47
2023-01-19T03:24:45.478Z,-3.50
2023-01-19T03:25:45.479Z,-3.51
2023-01-19T03:26:45.454Z,-3.49
2023-01-19T03:27:45.452Z,-3.53
2023-01-19T03:28:45.422Z,-3.57
2023-01-19T03:29:45.436Z,-3.64
2023-01-19T03:30:45.476Z,-3.68
2023-01-19T03:31:45.412Z,-3.70
2023-01-19T03:32:45.367Z,-3.70
2023-01-19T03:33:45.364Z,-3.70
2023-01-19T03:34:45.346Z,-3.70
2023-01-19T03:35:45.346Z,-3.71
2023-01-19T03:36:45.356Z,-3.72
2023-01-19T03:37:45.315Z,-3.71
2023-01-19T03:38:45.327Z,-3.68
2023-01-19T03:39:45.298Z,-3.68
2023-01-19T03:40:45.272Z,-3.62
2023-01-19T03:41:45.287Z,-3.61
2023-01-19T03:42:45.259Z,-3.62
2023-01-19T03:43:45.248Z,-3.62
2023-01-19T03:44:45.231Z,-3.62
2023-01-19T03:45:45.217Z,-3.64
2023-01-19T03:46:45.198Z,-3.64
2023-01-19T03:47:45.212Z,-3.64
2023-01-19T03:48:45.193Z,-3.67
2023-01-19T03:49:45.172Z,-3.68
2023-01-19T03:50:45.145Z,-3.71
2023-01-19T03:51:45.145Z,-3.68
2023-01-19T03:52:45.129Z,-3.67
2023-01-19T03:53:45.116Z,-3.64
2023-01-19T03:54:45.111Z,-3.64
2023-01-19T03:55:45.098Z,-3.62
2023-01-19T03:56:45.085Z,-3.64
2023-01-19T03:57:45.077Z,-3.62
2023-01-19T03:58:45.077Z,-3.64
2023-01-19T03:59:45.050Z,-3.64
2023-01-19T04:00:45.034Z,-3.68
2023-01-19T04:01:45.305Z,-3.68
2023-01-19T04:02:45.041Z,-3.70
2023-01-19T04:03:45.049Z,-3.71
2023-01-19T04:04:44.991Z,-3.71
2023-01-19T04:05:45.368Z,-3.71
2023-01-19T04:06:44.960Z,-3.76
2023-01-19T04:07:45.053Z,-3.76
2023-01-19T04:08:44.930Z,-3.81
2023-01-19T04:09:44.965Z,-3.83
2023-01-19T04:10:44.937Z,-3.81
2023-01-19T04:11:44.935Z,-3.84
2023-01-19T04:12:44.864Z,-3.84
2023-01-19T04:13:44.896Z,-3.84
2023-01-19T04:14:44.836Z,-3.86
2023-01-19T04:15:44.879Z,-3.87
2023-01-19T04:16:44.814Z,-3.86
2023-01-19T04:17:44.835Z,-3.86
2023-01-19T04:18:44.814Z,-3.89
2023-01-19T04:19:44.796Z,-3.86
2023-01-19T04:20:44.838Z,-3.84
2023-01-19T04:21:44.794Z,-3.86
2023-01-19T04:22:44.753Z,-3.84
2023-01-19T04:23:44.755Z,-3.87
2023-01-19T04:24:44.733Z,-3.89
2023-01-19T04:25:44.741Z,-3.87
2023-01-19T04:26:44.726Z,-3.86
2023-01-19T04:27:44.699Z,-3.89
2023-01-19T04:28:44.674Z,-3.89
2023-01-19T04:29:44.688Z,-3.90
2023-01-19T04:30:44.643Z,-3.89
2023-01-19T04:31:44.643Z,-3.86
2023-01-19T04:32:44.642Z,-3.84
2023-01-19T04:33:44.624Z,-3.83
2023-01-19T04:34:44.616Z,-3.84
2023-01-19T04:35:44.615Z,-3.86
2023-01-19T04:36:44.593Z,-3.86
2023-01-19T04:37:44.592Z,-3.84
2023-01-19T04:38:44.572Z,-3.84
2023-01-19T04:39:44.557Z,-3.83
2023-01-19T04:40:44.533Z,-3.83
2023-01-19T04:41:44.530Z,-3.81
2023-01-19T04:42:44.522Z,-3.83
2023-01-19T04:43:44.491Z,-3.81
2023-01-19T04:44:44.471Z,-3.78
2023-01-19T04:45:44.479Z,-3.75
2023-01-19T04:46:44.490Z,-3.76
2023-01-19T04:47:44.441Z,-3.76
2023-01-19T04:48:44.496Z,-3.71
2023-01-19T04:49:44.421Z,-3.72
2023-01-19T04:50:44.422Z,-3.71
2023-01-19T04:51:44.410Z,-3.70
2023-01-19T04:52:44.404Z,-3.70
2023-01-19T04:53:44.387Z,-3.68
2023-01-19T04:54:44.382Z,-3.70
2023-01-19T04:55:51.356Z,-3.70
2023-01-19T04:56:44.316Z,-3.70
2023-01-19T04:57:44.306Z,-3.70
2023-01-19T04:58:44.316Z,-3.68
2023-01-19T04:59:44.292Z,-3.67
2023-01-19T05:00:44.292Z,-3.67
2023-01-19T05:01:44.340Z,-3.67
2023-01-19T05:02:44.277Z,-3.68
2023-01-19T05:03:44.243Z,-3.70
2023-01-19T05:04:44.232Z,-3.70
2023-01-19T05:05:44.207Z,-3.70
2023-01-19T05:06:44.213Z,-3.70
2023-01-19T05:07:44.176Z,-3.70
2023-01-19T05:08:45.478Z,-3.70
2023-01-19T05:09:44.193Z,-3.68
2023-01-19T05:10:44.151Z,-3.68
2023-01-19T05:11:44.151Z,-3.70
2023-01-19T05:12:44.144Z,-3.70
2023-01-19T05:13:44.104Z,-3.71
2023-01-19T05:14:44.114Z,-3.76
2023-01-19T05:15:44.103Z,-3.75
2023-01-19T05:16:44.083Z,-3.72
2023-01-19T05:17:44.070Z,-3.75
2023-01-19T05:18:44.063Z,-3.72
2023-01-19T05:19:44.037Z,-3.75
2023-01-19T05:20:44.049Z,-3.76
2023-01-19T05:21:44.023Z,-3.78
2023-01-19T05:22:44.028Z,-3.75
2023-01-19T05:23:43.993Z,-3.75
2023-01-19T05:24:43.971Z,-3.75
2023-01-19T05:25:43.952Z,-3.76
2023-01-19T05:26:43.940Z,-3.76
2023-01-19T05:27:43.923Z,-3.75
2023-01-19T05:28:43.947Z,-3.78
2023-01-19T05:29:43.923Z,-3.81
2023-01-19T05:30:43.943Z,-3.81
2023-01-19T05:31:43.928Z,-3.81
2023-01-19T05:32:43.888Z,-3.80
2023-01-19T05:33:43.883Z,-3.76
2023-01-19T05:34:43.923Z,-3.78
2023-01-19T05:35:43.843Z,-3.78
2023-01-19T05:36:43.831Z,-3.78
2023-01-19T05:37:43.800Z,-3.78
2023-01-19T05:38:43.803Z,-3.80
2023-01-19T05:39:43.780Z,-3.80
2023-01-19T05:40:43.789Z,-3.80
2023-01-19T05:41:43.768Z,-3.80
2023-01-19T05:42:43.759Z,-3.84
2023-01-19T05:43:43.729Z,-3.83
2023-01-19T05:44:43.741Z,-3.84
2023-01-19T05:45:43.719Z,-3.86
2023-01-19T05:46:43.764Z,-3.84
2023-01-19T05:47:43.683Z,-3.86
2023-01-19T05:48:43.681Z,-3.86
2023-01-19T05:49:43.662Z,-3.89
2023-01-19T05:50:43.661Z,-3.87
2023-01-19T05:51:43.660Z,-3.89
2023-01-19T05:52:43.628Z,-3.87
2023-01-19T05:53:43.625Z,-3.86
2023-01-19T05:54:43.622Z,-3.86
2023-01-19T05:55:43.605Z,-3.87
2023-01-19T05:56:43.598Z,-3.87
2023-01-19T05:57:43.547Z,-3.86
2023-01-19T05:58:43.564Z,-3.86
2023-01-19T05:59:43.543Z,-3.87
2023-01-19T06:00:43.529Z,-3.87
2023-01-19T06:01:43.627Z,-3.89
2023-01-19T06:02:43.597Z,-3.87
2023-01-19T06:03:43.502Z,-3.87
2023-01-19T06:04:43.550Z,-3.86
2023-01-19T06:05:43.457Z,-3.86
2023-01-19T06:06:43.450Z,-3.84
2023-01-19T06:07:43.447Z,-3.84
2023-01-19T06:08:43.445Z,-3.84
2023-01-19T06:09:43.442Z,-3.86
2023-01-19T06:10:43.422Z,-3.86
2023-01-19T06:11:43.418Z,-3.86
2023-01-19T06:12:43.386Z,-3.86
2023-01-19T06:13:43.498Z,-3.89
2023-01-19T06:14:43.360Z,-3.87
2023-01-19T06:15:43.338Z,-3.87
2023-01-19T06:16:43.427Z,-3.87
2023-01-19T06:17:43.307Z,-3.87
2023-01-19T06:18:43.304Z,-3.90
2023-01-19T06:19:43.296Z,-3.90
2023-01-19T06:20:43.278Z,-3.91
2023-01-19T06:21:43.277Z,-3.93
2023-01-19T06:22:43.255Z,-3.90
2023-01-19T06:23:43.241Z,-3.93
2023-01-19T06:24:43.238Z,-3.90
2023-01-19T06:25:43.228Z,-3.89
2023-01-19T06:26:43.216Z,-3.90
2023-01-19T06:27:43.191Z,-3.90
2023-01-19T06:28:43.207Z,-3.89
2023-01-19T06:29:43.173Z,-3.87
2023-01-19T06:30:43.179Z,-3.89
2023-01-19T06:31:43.171Z,-3.89
2023-01-19T06:32:43.142Z,-3.87
2023-01-19T06:33:43.107Z,-3.86
2023-01-19T06:34:43.106Z,-3.84
2023-01-19T06:35:43.104Z,-3.87
2023-01-19T06:36:43.097Z,-3.86
2023-01-19T06:37:43.074Z,-3.86
2023-01-19T06:38:43.062Z,-3.89
2023-01-19T06:39:43.064Z,-3.90
2023-01-19T06:40:43.057Z,-3.93
2023-01-19T06:41:43.055Z,-3.93
2023-01-19T06:42:43.016Z,-3.93
2023-01-19T06:43:42.998Z,-3.93
2023-01-19T06:44:42.987Z,-3.94
2023-01-19T06:45:45.145Z,-3.93
2023-01-19T06:46:42.964Z,-3.94
2023-01-19T06:47:43.092Z,-3.91
2023-01-19T06:48:42.941Z,-3.91
2023-01-19T06:49:42.922Z,-3.94
2023-01-19T06:50:42.903Z,-3.96
2023-01-19T06:51:42.903Z,-3.98
2023-01-19T06:52:42.891Z,-3.98
2023-01-19T06:53:42.878Z,-3.96
2023-01-19T06:54:42.863Z,-3.96
2023-01-19T06:55:42.852Z,-3.94
2023-01-19T06:56:42.843Z,-3.94
2023-01-19T06:57:42.827Z,-3.93
2023-01-19T06:58:42.818Z,-3.94
2023-01-19T06:59:42.823Z,-3.98
2023-01-19T07:00:42.853Z,-3.98
2023-01-19T07:01:42.995Z,-3.99
2023-01-19T07:02:42.876Z,-3.99
2023-01-19T07:03:42.768Z,-3.99
2023-01-19T07:04:42.741Z,-4.05
2023-01-19T07:05:42.799Z,-4.08
2023-01-19T07:06:42.733Z,-4.08
2023-01-19T07:07:42.705Z,-4.05
2023-01-19T07:08:42.692Z,-4.04
2023-01-19T07:09:42.674Z,-4.01
2023-01-19T07:11:26.446Z,-4.01
2023-01-19T07:11:43.675Z,-4.02
2023-01-19T07:12:42.641Z,-4.02
2023-01-19T07:13:42.613Z,-4.04
2023-01-19T07:14:42.621Z,-4.05
2023-01-19T07:15:42.600Z,-4.04
2023-01-19T07:16:42.625Z,-4.07
2023-01-19T07:17:42.561Z,-4.05
2023-01-19T07:18:42.571Z,-4.04
2023-01-19T07:19:42.545Z,-4.05
2023-01-19T07:20:42.541Z,-4.01
2023-01-19T07:21:42.561Z,-4.01
2023-01-19T07:22:42.523Z,-3.99
2023-01-19T07:23:42.499Z,-3.99
2023-01-19T07:24:42.511Z,-3.98
2023-01-19T07:25:42.481Z,-3.98
2023-01-19T07:26:42.471Z,-3.96
2023-01-19T07:27:42.541Z,-3.94
2023-01-19T07:28:42.460Z,-3.93
2023-01-19T07:29:42.419Z,-3.94
2023-01-19T07:30:42.547Z,-3.98
2023-01-19T07:31:42.529Z,-3.96
2023-01-19T07:32:42.513Z,-3.96
2023-01-19T07:33:42.372Z,-3.94
2023-01-19T07:34:42.381Z,-3.90
2023-01-19T07:35:42.338Z,-3.86
2023-01-19T07:36:42.348Z,-3.83
2023-01-19T07:37:42.323Z,-3.80
2023-01-19T07:38:42.339Z,-3.76
2023-01-19T07:39:42.321Z,-3.75
2023-01-19T07:40:42.300Z,-3.71
2023-01-19T07:41:42.283Z,-3.70
2023-01-19T07:42:42.286Z,-3.70
2023-01-19T07:43:42.253Z,-3.68
2023-01-19T07:44:42.246Z,-3.68
2023-01-19T07:45:42.238Z,-3.67
2023-01-19T07:46:42.219Z,-3.64
2023-01-19T07:47:42.204Z,-3.61
2023-01-19T07:48:42.208Z,-3.61
2023-01-19T07:49:42.168Z,-3.60
2023-01-19T07:50:42.166Z,-3.57
2023-01-19T07:51:42.146Z,-3.57
2023-01-19T07:52:42.148Z,-3.54
2023-01-19T07:53:42.196Z,-3.53
2023-01-19T07:54:42.175Z,-3.51
2023-01-19T07:55:42.099Z,-3.51
2023-01-19T07:56:42.101Z,-3.49
2023-01-19T07:57:42.117Z,-3.49
2023-01-19T07:58:42.089Z,-3.46
2023-01-19T07:59:42.082Z,-3.44
2023-01-19T08:00:42.055Z,-3.44
2023-01-19T08:01:42.152Z,-3.41
2023-01-19T08:02:42.026Z,-3.38
2023-01-19T08:03:41.986Z,-3.33
2023-01-19T08:04:42.010Z,-3.31
2023-01-19T08:05:41.997Z,-3.28
2023-01-19T08:06:41.972Z,-3.26
2023-01-19T08:07:41.946Z,-3.23
2023-01-19T08:08:41.948Z,-3.25
2023-01-19T08:09:41.926Z,-3.20
2023-01-19T08:10:41.935Z,-3.17
2023-01-19T08:11:41.902Z,-3.13
2023-01-19T08:12:41.901Z,-3.10
2023-01-19T08:13:41.866Z,-3.07
2023-01-19T08:14:41.865Z,-3.04
2023-01-19T08:15:41.951Z,-3.00
2023-01-19T08:16:41.857Z,-2.99
2023-01-19T08:17:41.835Z,-2.96
2023-01-19T08:18:41.816Z,-2.93
2023-01-19T08:19:41.817Z,-2.90
2023-01-19T08:20:41.828Z,-2.86
2023-01-19T08:21:41.773Z,-2.85
2023-01-19T08:22:41.771Z,-2.79
2023-01-19T08:23:41.858Z,-2.76
2023-01-19T08:24:41.744Z,-2.75
2023-01-19T08:25:41.729Z,-2.74
2023-01-19T08:26:41.755Z,-2.71
2023-01-19T08:27:41.693Z,-2.68
2023-01-19T08:28:41.695Z,-2.64
2023-01-19T08:29:41.662Z,-2.63
2023-01-19T08:30:41.761Z,-2.60
2023-01-19T08:31:41.755Z,-2.61
2023-01-19T08:32:41.654Z,-2.60
2023-01-19T08:33:41.694Z,-2.57
2023-01-19T08:34:41.632Z,-2.54
2023-01-19T08:35:41.598Z,-2.51
2023-01-19T08:36:41.594Z,-2.50
2023-01-19T08:37:41.577Z,-2.43
2023-01-19T08:38:41.565Z,-2.36
2023-01-19T08:39:41.565Z,-2.36
2023-01-19T08:40:41.531Z,-2.32
2023-01-19T08:41:41.506Z,-2.28
2023-01-19T08:42:41.541Z,-2.29
2023-01-19T08:43:41.497Z,-2.33
2023-01-19T08:44:57.265Z,-2.28
2023-01-19T08:45:42.496Z,-2.23
2023-01-19T08:46:41.499Z,-2.20
2023-01-19T08:47:41.545Z,-2.17
2023-01-19T08:48:41.484Z,-2.16
2023-01-19T08:49:41.422Z,-2.13
2023-01-19T08:50:41.431Z,-2.10
2023-01-19T08:51:41.384Z,-2.08
2023-01-19T08:52:41.403Z,-2.03
2023-01-19T08:53:41.395Z,-2.03
2023-01-19T08:54:41.365Z,-2.00
2023-01-19T08:55:41.337Z,-1.98
2023-01-19T08:56:41.323Z,-1.96
2023-01-19T08:57:41.316Z,-1.95
2023-01-19T08:58:41.320Z,-1.92
2023-01-19T08:59:41.305Z,-1.90
2023-01-19T09:00:41.298Z,-1.87
2023-01-19T09:01:41.352Z,-1.84
2023-01-19T09:02:41.282Z,-1.80
2023-01-19T09:03:41.261Z,-1.80
2023-01-19T09:04:41.288Z,-1.74
2023-01-19T09:05:41.213Z,-1.72
2023-01-19T09:06:41.227Z,-1.69
2023-01-19T09:07:41.235Z,-1.67
2023-01-19T09:08:41.200Z,-1.69
2023-01-19T09:09:41.187Z,-1.72
2023-01-19T09:10:41.202Z,-1.70
2023-01-19T09:11:41.133Z,-1.67
2023-01-19T09:12:41.121Z,-1.64
2023-01-19T09:13:41.101Z,-1.60
2023-01-19T09:14:41.101Z,-1.57
2023-01-19T09:15:41.143Z,-1.60
2023-01-19T09:16:41.081Z,-1.60
2023-01-19T09:17:41.076Z,-1.62
2023-01-19T09:18:41.040Z,-1.62
2023-01-19T09:19:41.044Z,-1.60
2023-01-19T09:20:41.057Z,-1.59
2023-01-19T09:21:41.022Z,-1.53
2023-01-19T09:22:41.011Z,-1.48
2023-01-19T09:23:40.992Z,-1.48
2023-01-19T09:24:41.014Z,-1.43
2023-01-19T09:25:40.977Z,-1.41
2023-01-19T09:26:40.952Z,-1.51
2023-01-19T09:27:40.950Z,-1.48
2023-01-19T09:28:40.952Z,-1.42
2023-01-19T09:29:40.924Z,-1.38
2023-01-19T09:30:40.953Z,-1.41
2023-01-19T09:31:40.920Z,-1.38
2023-01-19T09:32:40.877Z,-1.36
2023-01-19T09:33:40.871Z,-1.30
2023-01-19T09:34:40.860Z,-1.28
2023-01-19T09:35:40.850Z,-1.24
2023-01-19T09:36:40.844Z,-1.24
2023-01-19T09:37:40.821Z,-1.23
2023-01-19T09:38:40.800Z,-1.18
2023-01-19T09:39:40.842Z,-1.20
2023-01-19T09:40:42.096Z,-1.15
2023-01-19T09:41:40.783Z,-1.10
2023-01-19T09:42:40.759Z,-1.06
2023-01-19T09:43:40.765Z,-1.00
2023-01-19T09:44:40.720Z,-0.95
2023-01-19T09:45:40.758Z,-0.95
2023-01-19T09:46:40.742Z,-0.94
2023-01-19T09:47:40.723Z,-1.00
2023-01-19T09:48:40.671Z,-1.02
2023-01-19T09:49:40.670Z,-1.03
2023-01-19T09:50:40.659Z,-1.02
2023-01-19T09:51:40.664Z,-0.97
2023-01-19T09:52:40.619Z,-0.94
2023-01-19T09:53:40.631Z,-0.89
2023-01-19T09:54:40.658Z,-0.84
2023-01-19T09:55:40.603Z,-0.80
2023-01-19T09:56:40.590Z,-0.77
2023-01-19T09:57:40.597Z,-0.75
2023-01-19T09:58:40.557Z,-0.75
2023-01-19T09:59:40.591Z,-0.72
2023-01-19T10:00:40.542Z,-0.73
2023-01-19T10:01:40.575Z,-0.69
2023-01-19T10:02:40.606Z,-0.68
2023-01-19T10:03:40.504Z,-0.68
2023-01-19T10:04:40.511Z,-0.63
2023-01-19T10:05:40.479Z,-0.59
2023-01-19T10:06:40.457Z,-0.52
2023-01-19T10:07:40.456Z,-0.51
2023-01-19T10:08:40.517Z,-0.47
2023-01-19T10:09:40.430Z,-0.50
2023-01-19T10:10:40.406Z,-0.52
2023-01-19T10:11:51.815Z,-0.54
2023-01-19T10:12:41.414Z,-0.55
2023-01-19T10:13:40.379Z,-0.54
2023-01-19T10:14:40.369Z,-0.52
2023-01-19T10:15:40.380Z,-0.51
2023-01-19T10:16:40.360Z,-0.54
2023-01-19T10:17:40.347Z,-0.51
2023-01-19T10:18:40.296Z,-0.47
2023-01-19T10:19:40.293Z,-0.42
2023-01-19T10:20:40.280Z,-0.39
2023-01-19T10:21:40.306Z,-0.36
2023-01-19T10:22:40.254Z,-0.33
2023-01-19T10:23:40.292Z,-0.34
2023-01-19T10:24:40.224Z,-0.30
2023-01-19T10:25:40.298Z,-0.24
2023-01-19T10:26:40.207Z,-0.22
2023-01-19T10:27:40.225Z,-0.23
2023-01-19T10:28:40.162Z,-0.19
2023-01-19T10:29:40.207Z,-0.19
2023-01-19T10:30:40.193Z,-0.19
2023-01-19T10:31:40.229Z,-0.13
2023-01-19T10:32:40.129Z,-0.12
2023-01-19T10:33:40.131Z,-0.06
2023-01-19T10:34:40.097Z,-0.06
2023-01-19T10:35:40.086Z,-0.06
2023-01-19T10:36:40.105Z,-0.12
2023-01-19T10:37:40.065Z,-0.09
2023-01-19T10:38:40.070Z,-0.09
2023-01-19T10:39:40.090Z,-0.09
2023-01-19T10:40:40.044Z,-0.15
2023-01-19T10:41:40.037Z,-0.11
2023-01-19T10:42:40.014Z,-0.08
2023-01-19T10:43:40.050Z,-0.06
2023-01-19T10:44:40.016Z,-0.06
2023-01-19T10:45:40.033Z,-0.06
2023-01-19T10:46:39.935Z,-0.01
2023-01-19T10:47:39.956Z,0.03
2023-01-19T10:48:39.921Z,0.09
2023-01-19T10:49:39.992Z,0.09
2023-01-19T10:50:40.046Z,0.05
2023-01-19T10:51:39.927Z,0.02
2023-01-19T10:52:39.946Z,0.06
2023-01-19T10:53:39.869Z,0.10
2023-01-19T10:54:39.856Z,0.15
2023-01-19T10:55:46.864Z,0.20
2023-01-19T10:56:39.888Z,0.24
2023-01-19T10:57:39.848Z,0.31
2023-01-19T10:58:39.857Z,0.34
2023-01-19T10:59:39.817Z,0.31
2023-01-19T11:00:39.829Z,0.34
2023-01-19T11:01:39.844Z,0.27
2023-01-19T11:02:39.885Z,0.30
2023-01-19T11:03:39.819Z,0.34
2023-01-19T11:04:39.805Z,0.36
2023-01-19T11:05:39.745Z,0.42
2023-01-19T11:06:39.700Z,0.41
2023-01-19T11:07:39.704Z,0.43
2023-01-19T11:08:39.682Z,0.45
2023-01-19T11:09:39.682Z,0.39
2023-01-19T11:10:39.652Z,0.39
2023-01-19T11:11:39.644Z,0.39
2023-01-19T11:12:39.624Z,0.41
2023-01-19T11:13:39.619Z,0.45
2023-01-19T11:14:39.590Z,0.52
2023-01-19T11:15:39.583Z,0.57
2023-01-19T11:16:39.588Z,0.60
2023-01-19T11:17:39.560Z,0.65
2023-01-19T11:18:39.570Z,0.67
2023-01-19T11:19:39.553Z,0.65
2023-01-19T11:20:39.521Z,0.71
2023-01-19T11:21:39.534Z,0.68
2023-01-19T11:22:39.602Z,0.60
2023-01-19T11:23:39.481Z,0.64
2023-01-19T11:24:39.460Z,0.62
2023-01-19T11:25:39.464Z,0.67
2023-01-19T11:26:39.441Z,0.72
2023-01-19T11:27:39.442Z,0.79
2023-01-19T11:28:39.431Z,0.79
2023-01-19T11:29:39.412Z,0.78
2023-01-19T11:30:39.437Z,0.76
2023-01-19T11:31:39.437Z,0.76
2023-01-19T11:32:39.381Z,0.78
2023-01-19T11:33:39.434Z,0.79
2023-01-19T11:34:39.426Z,0.82
2023-01-19T11:35:39.460Z,0.86
2023-01-19T11:36:39.300Z,0.85
2023-01-19T11:37:39.449Z,0.89
2023-01-19T11:38:39.284Z,0.96
2023-01-19T11:39:39.280Z,1.01
2023-01-19T11:40:39.295Z,1.00
2023-01-19T11:41:39.262Z,0.94
2023-01-19T11:42:39.254Z,0.92
2023-01-19T11:43:48.663Z,0.94
2023-01-19T11:44:40.245Z,0.92
2023-01-19T11:45:39.240Z,0.89
2023-01-19T11:46:39.193Z,0.97
2023-01-19T11:47:39.182Z,0.98
2023-01-19T11:48:39.179Z,0.97
2023-01-19T11:49:39.163Z,1.01
2023-01-19T11:50:39.139Z,1.07
2023-01-19T11:51:39.148Z,1.15
2023-01-19T11:52:39.099Z,1.16
2023-01-19T11:53:39.099Z,1.21
2023-01-19T11:54:39.101Z,1.25
2023-01-19T11:55:39.089Z,1.25
2023-01-19T11:56:39.049Z,1.25
2023-01-19T11:57:39.062Z,1.25
2023-01-19T11:58:39.043Z,1.19
2023-01-19T11:59:39.047Z,1.21
2023-01-19T12:00:39.027Z,1.21
2023-01-19T12:01:39.001Z,1.18
2023-01-19T12:02:39.028Z,1.22
2023-01-19T12:03:39.062Z,1.26
2023-01-19T12:04:38.965Z,1.26
2023-01-19T12:05:38.971Z,1.32
2023-01-19T12:06:38.930Z,1.32
2023-01-19T12:07:38.934Z,1.29
2023-01-19T12:08:38.898Z,1.24
2023-01-19T12:09:38.898Z,1.16
2023-01-19T12:10:38.890Z,1.21
2023-01-19T12:11:38.876Z,1.26
2023-01-19T12:12:38.858Z,1.26
2023-01-19T12:13:38.854Z,1.26
2023-01-19T12:14:38.830Z,1.28
2023-01-19T12:15:38.824Z,1.25
2023-01-19T12:16:38.899Z,1.25
2023-01-19T12:17:38.801Z,1.25
2023-01-19T12:18:38.792Z,1.25
2023-01-19T12:19:38.777Z,1.19
2023-01-19T12:20:38.769Z,1.24
2023-01-19T12:21:38.754Z,1.24
2023-01-19T12:22:38.728Z,1.25
2023-01-19T12:23:38.721Z,1.28
2023-01-19T12:24:38.743Z,1.25
2023-01-19T12:25:38.744Z,1.22
2023-01-19T12:26:38.698Z,1.24
2023-01-19T12:27:39.526Z,1.32
2023-01-19T12:28:38.679Z,1.25
2023-01-19T12:29:38.650Z,1.32
2023-01-19T12:30:38.781Z,1.34
2023-01-19T12:31:38.859Z,1.39
2023-01-19T12:32:38.618Z,1.40
2023-01-19T12:33:38.598Z,1.42
2023-01-19T12:34:38.580Z,1.44
2023-01-19T12:35:38.567Z,1.44
2023-01-19T12:36:38.555Z,1.50
2023-01-19T12:37:38.553Z,1.44
2023-01-19T12:38:38.527Z,1.51
2023-01-19T12:39:38.529Z,1.51
2023-01-19T12:40:38.543Z,1.58
2023-01-19T12:41:38.513Z,1.68
2023-01-19T12:42:38.479Z,1.71
2023-01-19T12:43:38.500Z,1.73
2023-01-19T12:44:38.459Z,1.69
2023-01-19T12:45:38.507Z,1.69
2023-01-19T12:46:38.430Z,1.72
2023-01-19T12:47:38.440Z,1.78
2023-01-19T12:48:38.395Z,1.78
2023-01-19T12:49:38.425Z,1.79
2023-01-19T12:50:38.383Z,1.79
2023-01-19T12:51:38.358Z,1.76
2023-01-19T12:52:38.347Z,1.79
2023-01-19T12:53:38.341Z,1.79
2023-01-19T12:54:38.326Z,1.85
2023-01-19T12:55:38.382Z,1.90
2023-01-19T12:56:38.311Z,1.89